Airfield :
LOGIN :

Register | Disclaimer

   EN    FR    IT 

 










Legend :    VFR   Marginal VFR   IFR   Intensive IFR   Very Intensive IFR
Visi :
Ceiling :
>= 8 km
>= 3000ft
5 to 8 km
1000 to 3000 ft
1500m to 5 km
500 to 1000 ft
800 to 1500m
200 to 500 ft
< 800m
< 200 ft
Symbols :   Thunderstorms  Fog  Heavy snow  Heavy precipitations  Wind > 20 kt
SIGMETs :     Misc.  Thunderstorms  Icing  Turbulence  Mountain Waves  Volcanic Ashes






- Airport Elevation : 335 ft
- IATA code : BEG


LYBE - Belgrade Nikola Tesla

CURRENT METAR :
  • 150530Z 10006KT 7000 NSC 00/M00 Q1016 TEMPO 3000 BR

EXPIRED METARs :
  • 150500Z 10005KT 7000 NSC 00/00 Q1015 TEMPO 3000 BR
  • 150430Z 08003KT 7000 NSC 00/00 Q1015 TEMPO 3000 BR
  • 150400Z 11005KT 5000 BR NSC M00/M00 Q1015 TEMPO 3000
  • 150330Z 12006KT 2000 1000W R12/1700U R30/P2000N MIFG BR NSC M00/M01 Q1015 TEMPO 0800 FZFG
  • 150300Z 12003KT 0700 0400NW R12/0400D R30/0500N FG NSC 01/01 Q1015 TEMPO 1200 BR

TAF TAF LYBE
Valid from the 15 at 06:00 until the 16 at 06:00 UTC


150500Z 1506/1606 13008KT 7000 NSC TX14/1512Z TN01/1506Z
TEMPO 1506/1507 3000 BR
BECMG 1520/1522 3000 BR
TEMPO 1602/1606 0600 FG



MET'MAP, your aeronautical weather chart ! - Copyright ORBIFLY December 2007 - Disclaimer

ORBIFLY MET'MAP TEAM :

Programming & Development : Alexandra Zaïnal
Concept & original design : Baudouin d'Aumeries
Assistance for programming : Marc-Olivier Méhu
Technical & hardware support : Manuel Goepfert

Contact : metmap@orbifly.com




SOURCES & CREDITS :

   NOAA